Time;durP1;ratioP1;P1;durP2;ratioP2;P2;SDS_P1;SDS_P2;PMS_P1;PMS_P2;Temp;Humidity;BMP_temperature;BMP_pressure;BME280_temperature;BME280_humidity;BME280_pressure;Samples;Min_cycle;Max_cycle;Signal;HPM_P1;HPM_P2
2021/12/09 00:01:00;;;;;;;13.23;5.15;;;;;;;;;;5078982;28;20282;-82
2021/12/09 00:03:31;;;;;;;11.25;5.18;;;;;;;;;;5096792;28;20212;-81
2021/12/09 00:05:57;;;;;;;5.82;4.20;;;;;;;;;;5062449;28;20208;-81
2021/12/09 00:08:25;;;;;;;9.73;4.43;;;;;;;;;;5096520;28;20188;-81
2021/12/09 00:10:53;;;;;;;5.20;4.00;;;;;;;;;;5096312;28;20201;-81
2021/12/09 00:13:19;;;;;;;5.95;3.80;;;;;;;;;;5096494;28;20176;-82
2021/12/09 00:15:45;;;;;;;5.80;4.07;;;;;;;;;;5096444;28;20225;-82
2021/12/09 00:18:11;;;;;;;9.65;4.10;;;;;;;;;;5096309;28;20182;-82
2021/12/09 00:20:38;;;;;;;12.20;4.15;;;;;;;;;;5095903;28;20196;-80
2021/12/09 00:23:04;;;;;;;7.03;3.65;;;;;;;;;;5096323;28;20653;-80
2021/12/09 00:25:30;;;;;;;5.57;3.35;;;;;;;;;;5096328;28;20174;-81
2021/12/09 00:27:56;;;;;;;7.22;3.47;;;;;;;;;;5096236;28;20189;-80
2021/12/09 00:30:23;;;;;;;9.50;3.50;;;;;;;;;;5095695;28;20229;-81
2021/12/09 00:32:49;;;;;;;7.63;4.28;;;;;;;;;;5096135;28;20184;-81
2021/12/09 00:35:17;;;;;;;7.68;3.67;;;;;;;;;;5096097;28;20182;-81
2021/12/09 00:37:57;;;;;;;14.68;3.88;;;;;;;;;;5096107;28;20173;-79
2021/12/09 00:40:23;;;;;;;6.88;3.08;;;;;;;;;;5079858;28;20202;-80
2021/12/09 00:42:49;;;;;;;6.38;4.03;;;;;;;;;;5077729;28;20188;-79
2021/12/09 00:45:15;;;;;;;6.18;3.90;;;;;;;;;;5095808;28;20259;-80
2021/12/09 00:47:41;;;;;;;11.63;4.63;;;;;;;;;;5077857;28;20183;-81
2021/12/09 00:50:07;;;;;;;6.30;3.83;;;;;;;;;;5095413;28;20698;-80
2021/12/09 00:52:33;;;;;;;5.88;3.65;;;;;;;;;;5077459;28;20189;-83
2021/12/09 00:55:01;;;;;;;5.80;3.50;;;;;;;;;;5095757;28;20175;-82
2021/12/09 00:57:27;;;;;;;13.93;3.58;;;;;;;;;;5095464;28;20470;-80
2021/12/09 00:59:53;;;;;;;8.75;3.65;;;;;;;;;;5095219;28;20165;-80
2021/12/09 01:02:19;;;;;;;3.95;2.92;;;;;;;;;;5095716;28;20265;-80
2021/12/09 01:04:46;;;;;;;5.72;3.85;;;;;;;;;;5095410;28;20168;-81
2021/12/09 01:07:12;;;;;;;9.20;4.30;;;;;;;;;;5095418;28;20203;-83
2021/12/09 01:09:38;;;;;;;8.10;3.65;;;;;;;;;;5095249;28;20647;-81
2021/12/09 01:12:05;;;;;;;6.47;3.38;;;;;;;;;;5095287;28;20189;-82
2021/12/09 01:14:31;;;;;;;10.10;4.07;;;;;;;;;;5077165;28;20637;-82
2021/12/09 01:16:57;;;;;;;15.70;4.72;;;;;;;;;;5094989;28;20259;-80
2021/12/09 01:19:23;;;;;;;5.72;3.97;;;;;;;;;;5094865;28;20185;-78
2021/12/09 01:21:49;;;;;;;8.85;3.40;;;;;;;;;;5095253;28;20813;-80
2021/12/09 01:24:15;;;;;;;8.75;4.22;;;;;;;;;;5095136;28;20198;-80
2021/12/09 01:26:42;;;;;;;8.60;3.47;;;;;;;;;;5095113;28;20178;-79
2021/12/09 01:29:15;;;;;;;13.02;3.40;;;;;;;;;;5094783;28;20234;-80
2021/12/09 01:31:50;;;;;;;8.73;3.30;;;;;;;;;;5094922;28;20303;-81
2021/12/09 01:34:19;;;;;;;9.68;3.60;;;;;;;;;;5095193;28;20176;-80
2021/12/09 01:36:47;;;;;;;6.68;3.35;;;;;;;;;;5077420;28;20235;-81
2021/12/09 01:39:14;;;;;;;8.23;3.58;;;;;;;;;;5076882;28;20359;-80
2021/12/09 01:41:40;;;;;;;10.18;3.78;;;;;;;;;;5094911;28;20200;-80
2021/12/09 01:44:06;;;;;;;7.32;3.92;;;;;;;;;;5076565;28;20180;-80
2021/12/09 01:46:32;;;;;;;7.65;3.45;;;;;;;;;;5094839;28;20289;-81
2021/12/09 01:48:58;;;;;;;5.40;3.08;;;;;;;;;;5094866;28;20672;-81
2021/12/09 01:51:24;;;;;;;7.75;3.30;;;;;;;;;;5094165;28;20192;-81
2021/12/09 01:53:51;;;;;;;8.25;3.55;;;;;;;;;;5094829;28;20590;-79
2021/12/09 01:56:23;;;;;;;8.43;3.10;;;;;;;;;;5076537;28;20567;-79
2021/12/09 01:58:53;;;;;;;5.97;3.38;;;;;;;;;;5094783;28;20165;-79
2021/12/09 02:01:19;;;;;;;12.85;3.70;;;;;;;;;;5076054;28;20290;-82
2021/12/09 02:03:46;;;;;;;7.07;3.00;;;;;;;;;;5094436;28;20176;-81
2021/12/09 02:06:12;;;;;;;12.65;3.47;;;;;;;;;;5094768;28;20177;-80
2021/12/09 02:08:38;;;;;;;6.63;2.80;;;;;;;;;;5094243;28;20541;-80
2021/12/09 02:11:04;;;;;;;7.43;3.25;;;;;;;;;;5093350;28;20242;-81
2021/12/09 02:13:30;;;;;;;10.63;3.30;;;;;;;;;;5094203;28;20176;-81
2021/12/09 02:15:56;;;;;;;8.27;3.25;;;;;;;;;;5094111;28;20207;-79
2021/12/09 02:18:23;;;;;;;4.40;2.90;;;;;;;;;;5094258;28;20688;-81
2021/12/09 02:21:07;;;;;;;5.72;4.10;;;;;;;;;;5093805;28;20188;-81
2021/12/09 02:23:34;;;;;;;7.60;3.85;;;;;;;;;;5075797;28;20720;-79
2021/12/09 02:26:00;;;;;;;5.45;3.42;;;;;;;;;;5093919;28;20179;-80
2021/12/09 02:28:26;;;;;;;7.25;3.15;;;;;;;;;;5093997;28;20190;-79
2021/12/09 02:30:52;;;;;;;9.23;2.85;;;;;;;;;;5093374;28;20219;-81
2021/12/09 02:33:18;;;;;;;10.68;3.42;;;;;;;;;;5075886;28;20206;-81
2021/12/09 02:35:44;;;;;;;6.88;3.40;;;;;;;;;;5093802;28;20196;-81
2021/12/09 02:38:11;;;;;;;8.45;3.30;;;;;;;;;;5093798;28;20173;-81
2021/12/09 02:40:37;;;;;;;7.10;3.67;;;;;;;;;;5093456;28;20249;-80
2021/12/09 02:43:08;;;;;;;6.30;3.00;;;;;;;;;;5093661;28;20176;-79
2021/12/09 02:45:34;;;;;;;9.43;3.08;;;;;;;;;;5075404;28;20206;-81
2021/12/09 02:48:00;;;;;;;11.23;3.60;;;;;;;;;;5093863;28;20173;-81
2021/12/09 02:50:26;;;;;;;6.10;3.47;;;;;;;;;;5093520;28;20203;-81
2021/12/09 02:52:52;;;;;;;5.90;2.88;;;;;;;;;;5093559;28;20172;-81
2021/12/09 02:55:18;;;;;;;7.28;2.95;;;;;;;;;;5075583;28;20183;-81
2021/12/09 02:57:44;;;;;;;5.18;2.85;;;;;;;;;;5093365;28;20242;-81
2021/12/09 03:00:11;;;;;;;8.32;3.38;;;;;;;;;;5093029;28;20196;-81
2021/12/09 03:02:37;;;;;;;5.90;3.17;;;;;;;;;;5093517;28;20172;-78
2021/12/09 03:05:04;;;;;;;11.52;4.15;;;;;;;;;;5093250;28;20251;-79
2021/12/09 03:07:36;;;;;;;3.72;3.30;;;;;;;;;;5093395;28;20177;-79
2021/12/09 03:10:10;;;;;;;11.85;3.70;;;;;;;;;;5092972;28;20544;-79
2021/12/09 03:12:39;;;;;;;9.00;3.60;;;;;;;;;;5093382;28;20161;-80
2021/12/09 03:15:06;;;;;;;8.20;3.60;;;;;;;;;;5093309;28;20176;-80
2021/12/09 03:17:33;;;;;;;13.40;4.00;;;;;;;;;;5093106;28;20294;-80
2021/12/09 03:19:59;;;;;;;5.35;2.85;;;;;;;;;;5092566;28;20194;-81
2021/12/09 03:22:26;;;;;;;5.95;3.78;;;;;;;;;;5097006;28;20176;-79
2021/12/09 03:24:52;;;;;;;7.93;3.60;;;;;;;;;;5097349;28;20168;-79
2021/12/09 03:27:18;;;;;;;11.68;3.60;;;;;;;;;;5097460;28;20226;-81
2021/12/09 03:29:44;;;;;;;12.02;4.50;;;;;;;;;;5096961;28;20172;-81
2021/12/09 03:32:11;;;;;;;7.03;3.60;;;;;;;;;;5097032;28;20245;-81
2021/12/09 03:34:39;;;;;;;7.13;3.72;;;;;;;;;;5097237;28;20547;-78
2021/12/09 03:37:06;;;;;;;6.28;4.10;;;;;;;;;;5097267;28;20199;-80
2021/12/09 03:39:34;;;;;;;6.75;4.00;;;;;;;;;;5097222;28;20168;-80
2021/12/09 03:42:00;;;;;;;7.07;3.60;;;;;;;;;;5096792;28;20199;-78
2021/12/09 03:44:28;;;;;;;8.73;3.65;;;;;;;;;;5097259;28;20211;-78
2021/12/09 03:46:55;;;;;;;8.27;3.88;;;;;;;;;;5096905;28;20222;-79
2021/12/09 03:49:23;;;;;;;4.18;3.60;;;;;;;;;;5078625;28;20636;-83
2021/12/09 03:51:49;;;;;;;7.60;3.20;;;;;;;;;;5078705;28;20683;-83
2021/12/09 03:54:15;;;;;;;7.07;3.22;;;;;;;;;;5097212;28;20207;-79
2021/12/09 03:56:41;;;;;;;6.45;3.60;;;;;;;;;;5096731;28;20204;-80
2021/12/09 03:59:09;;;;;;;10.23;3.83;;;;;;;;;;5096996;28;20576;-81
2021/12/09 04:01:36;;;;;;;4.55;2.72;;;;;;;;;;5096610;28;20193;-82
2021/12/09 04:04:02;;;;;;;6.15;3.35;;;;;;;;;;5096620;28;20175;-81
2021/12/09 04:06:29;;;;;;;10.43;3.80;;;;;;;;;;5096902;28;20202;-80
2021/12/09 04:08:55;;;;;;;8.80;3.60;;;;;;;;;;5078558;28;20229;-83
2021/12/09 04:11:21;;;;;;;5.90;3.78;;;;;;;;;;5096404;28;20591;-82
2021/12/09 04:13:47;;;;;;;5.90;3.03;;;;;;;;;;5096564;28;20219;-82
2021/12/09 04:16:14;;;;;;;7.07;3.25;;;;;;;;;;5078512;28;20228;-82
2021/12/09 04:18:41;;;;;;;4.13;3.25;;;;;;;;;;5096630;28;20534;-81
2021/12/09 04:21:08;;;;;;;6.50;3.13;;;;;;;;;;5096071;28;20199;-81
2021/12/09 04:23:34;;;;;;;6.60;3.33;;;;;;;;;;5096435;28;20758;-81
2021/12/09 04:26:00;;;;;;;5.30;3.25;;;;;;;;;;5096246;28;20184;-80
2021/12/09 04:28:27;;;;;;;8.30;2.80;;;;;;;;;;5077942;28;20840;-78
2021/12/09 04:30:53;;;;;;;11.70;3.83;;;;;;;;;;5095613;28;20196;-78
2021/12/09 04:33:19;;;;;;;8.95;3.30;;;;;;;;;;5095411;28;20180;-80
2021/12/09 04:35:45;;;;;;;11.30;3.70;;;;;;;;;;5096074;28;20192;-79
2021/12/09 04:38:12;;;;;;;7.47;3.63;;;;;;;;;;5096105;28;20237;-81
2021/12/09 04:40:38;;;;;;;6.13;4.03;;;;;;;;;;5095736;28;20560;-83
2021/12/09 04:43:04;;;;;;;7.70;3.25;;;;;;;;;;5077714;28;20274;-82
2021/12/09 04:45:33;;;;;;;9.18;3.80;;;;;;;;;;5095940;28;20684;-84
2021/12/09 04:47:59;;;;;;;5.63;3.05;;;;;;;;;;5077998;28;20566;-81
2021/12/09 04:50:25;;;;;;;6.13;4.00;;;;;;;;;;5095465;28;20656;-83
2021/12/09 04:52:51;;;;;;;12.07;3.17;;;;;;;;;;5096013;28;20226;-83
2021/12/09 04:55:17;;;;;;;7.75;3.60;;;;;;;;;;5095608;28;20175;-83
2021/12/09 04:57:43;;;;;;;6.38;3.40;;;;;;;;;;5077921;28;20263;-81
2021/12/09 05:00:12;;;;;;;8.05;3.50;;;;;;;;;;5095269;28;20203;-80
2021/12/09 05:05:07;;;;;;;8.25;3.45;;;;;;;;;;5095744;28;20188;-82
2021/12/09 05:07:33;;;;;;;11.75;3.85;;;;;;;;;;5095445;28;20177;-82
2021/12/09 05:09:59;;;;;;;9.90;3.83;;;;;;;;;;5095113;28;20176;-82
2021/12/09 05:12:27;;;;;;;11.85;4.10;;;;;;;;;;5095630;28;20223;-81
2021/12/09 05:14:54;;;;;;;7.53;3.80;;;;;;;;;;5095276;28;20208;-79
2021/12/09 05:17:20;;;;;;;7.60;4.07;;;;;;;;;;5077128;28;20214;-81
2021/12/09 05:19:46;;;;;;;9.98;3.83;;;;;;;;;;5095102;28;20169;-80
2021/12/09 05:22:13;;;;;;;6.82;3.85;;;;;;;;;;5095074;28;20191;-80
2021/12/09 05:24:40;;;;;;;7.28;3.85;;;;;;;;;;5094992;28;20195;-79
2021/12/09 05:27:06;;;;;;;8.60;3.58;;;;;;;;;;5076848;28;20559;-82
2021/12/09 05:29:39;;;;;;;6.72;3.28;;;;;;;;;;5094669;28;20225;-80
2021/12/09 05:32:08;;;;;;;6.70;3.00;;;;;;;;;;5094911;28;20204;-81
2021/12/09 05:34:39;;;;;;;8.10;3.65;;;;;;;;;;5095000;28;20196;-82
2021/12/09 05:37:07;;;;;;;6.18;4.45;;;;;;;;;;5094527;28;20672;-80
2021/12/09 05:39:33;;;;;;;9.55;3.60;;;;;;;;;;5094584;28;20181;-79
2021/12/09 05:41:59;;;;;;;8.55;3.58;;;;;;;;;;5094990;28;20188;-79
2021/12/09 05:44:25;;;;;;;9.50;3.33;;;;;;;;;;5093936;28;20530;-81
2021/12/09 05:46:51;;;;;;;5.88;3.33;;;;;;;;;;5094680;28;20179;-81
2021/12/09 05:49:17;;;;;;;8.88;4.15;;;;;;;;;;5094371;28;20176;-79
2021/12/09 05:51:44;;;;;;;6.10;3.70;;;;;;;;;;5094675;28;20272;-80
2021/12/09 05:54:10;;;;;;;16.10;3.40;;;;;;;;;;5094444;28;20176;-82
2021/12/09 05:56:36;;;;;;;8.07;3.83;;;;;;;;;;5094528;28;20537;-82
2021/12/09 05:59:03;;;;;;;12.70;4.50;;;;;;;;;;5094325;28;20180;-81
2021/12/09 06:01:29;;;;;;;7.70;3.65;;;;;;;;;;5094147;28;20195;-82
2021/12/09 06:03:55;;;;;;;10.60;3.92;;;;;;;;;;5094426;28;20182;-82
2021/12/09 06:06:21;;;;;;;6.80;4.60;;;;;;;;;;5094431;28;20620;-80
2021/12/09 06:08:47;;;;;;;10.23;3.83;;;;;;;;;;5094397;28;20533;-81
2021/12/09 06:11:14;;;;;;;8.15;4.13;;;;;;;;;;5093806;28;20207;-81
2021/12/09 06:13:40;;;;;;;8.57;4.13;;;;;;;;;;5094401;28;20172;-81
2021/12/09 06:16:07;;;;;;;6.50;3.78;;;;;;;;;;5075964;28;20204;-78
2021/12/09 06:18:33;;;;;;;5.93;3.80;;;;;;;;;;5094357;28;20588;-79
2021/12/09 06:20:59;;;;;;;4.63;3.40;;;;;;;;;;5093836;28;20511;-80
2021/12/09 06:23:25;;;;;;;8.88;4.30;;;;;;;;;;5093995;28;20191;-81
2021/12/09 06:25:51;;;;;;;15.52;4.03;;;;;;;;;;5075801;28;20584;-78
2021/12/09 06:28:17;;;;;;;5.47;3.83;;;;;;;;;;5093973;28;20212;-79
2021/12/09 06:30:44;;;;;;;9.90;4.50;;;;;;;;;;5093482;28;20216;-81
2021/12/09 06:33:10;;;;;;;9.68;4.60;;;;;;;;;;5075564;28;20194;-81
2021/12/09 06:35:37;;;;;;;8.15;4.25;;;;;;;;;;5093665;28;20271;-80
2021/12/09 06:38:04;;;;;;;13.63;4.63;;;;;;;;;;5093823;28;20172;-79
2021/12/09 06:40:30;;;;;;;9.98;4.22;;;;;;;;;;5075218;28;20285;-79
2021/12/09 06:42:56;;;;;;;9.75;5.10;;;;;;;;;;5093748;28;20172;-79
2021/12/09 06:45:23;;;;;;;17.30;5.50;;;;;;;;;;5093541;28;20188;-81
2021/12/09 06:47:50;;;;;;;10.38;4.70;;;;;;;;;;5093648;28;20187;-79
2021/12/09 06:50:17;;;;;;;12.40;5.15;;;;;;;;;;5093312;28;20329;-80
2021/12/09 06:52:44;;;;;;;9.05;4.82;;;;;;;;;;5093570;28;20566;-81
2021/12/09 06:55:12;;;;;;;10.30;5.43;;;;;;;;;;5093476;28;20184;-82
2021/12/09 06:57:38;;;;;;;10.38;5.32;;;;;;;;;;5093273;28;20229;-80
2021/12/09 07:00:08;;;;;;;11.98;5.40;;;;;;;;;;5093325;28;20176;-80
2021/12/09 07:02:34;;;;;;;7.55;5.20;;;;;;;;;;5093331;28;20718;-80
2021/12/09 07:05:00;;;;;;;6.60;4.22;;;;;;;;;;5093584;28;20169;-80
2021/12/09 07:07:26;;;;;;;10.05;4.80;;;;;;;;;;5075541;28;20243;-80
2021/12/09 07:09:52;;;;;;;12.35;5.60;;;;;;;;;;5092901;28;20180;-79
2021/12/09 07:12:18;;;;;;;9.93;4.85;;;;;;;;;;5075505;28;20759;-80
2021/12/09 07:14:44;;;;;;;10.23;5.68;;;;;;;;;;5093276;28;20266;-79
2021/12/09 07:17:11;;;;;;;7.10;4.70;;;;;;;;;;5093234;28;20287;-83
2021/12/09 07:19:37;;;;;;;10.60;5.60;;;;;;;;;;5075044;28;21035;-80
2021/12/09 07:22:04;;;;;;;6.63;4.38;;;;;;;;;;5093114;28;20203;-80
2021/12/09 07:24:30;;;;;;;9.90;5.15;;;;;;;;;;5075131;28;20172;-79
2021/12/09 07:26:57;;;;;;;7.57;5.47;;;;;;;;;;5075067;28;20259;-82
2021/12/09 07:29:23;;;;;;;5.93;4.78;;;;;;;;;;5092954;28;20176;-81
2021/12/09 07:31:49;;;;;;;15.10;4.97;;;;;;;;;;5074578;28;20296;-80
2021/12/09 07:34:16;;;;;;;10.35;5.18;;;;;;;;;;5093074;28;20222;-80
2021/12/09 07:36:42;;;;;;;12.88;5.00;;;;;;;;;;5093052;28;20287;-81
2021/12/09 07:39:08;;;;;;;16.20;7.18;;;;;;;;;;5092117;28;20401;-79
2021/12/09 07:41:35;;;;;;;11.45;5.32;;;;;;;;;;5074849;28;20196;-79
2021/12/09 07:44:02;;;;;;;8.00;4.93;;;;;;;;;;5092876;28;20170;-79
2021/12/09 07:46:29;;;;;;;7.25;5.25;;;;;;;;;;5075230;28;20252;-78
2021/12/09 07:48:55;;;;;;;11.00;5.90;;;;;;;;;;5092956;28;20180;-78
2021/12/09 07:51:21;;;;;;;9.77;5.70;;;;;;;;;;5092746;28;20564;-80
2021/12/09 07:53:47;;;;;;;12.38;7.05;;;;;;;;;;5074876;28;20208;-80
2021/12/09 07:56:13;;;;;;;10.52;6.00;;;;;;;;;;5092936;28;20202;-81
2021/12/09 07:58:39;;;;;;;7.72;4.90;;;;;;;;;;5092856;28;20626;-79
2021/12/09 08:01:05;;;;;;;8.45;5.18;;;;;;;;;;5092507;28;20196;-79
2021/12/09 08:03:31;;;;;;;7.75;5.70;;;;;;;;;;5092906;28;20644;-80
2021/12/09 08:05:57;;;;;;;9.70;4.78;;;;;;;;;;5092882;28;20519;-78
2021/12/09 08:08:23;;;;;;;11.73;5.50;;;;;;;;;;5094694;28;20661;-79
2021/12/09 08:10:49;;;;;;;9.55;5.75;;;;;;;;;;5096370;28;20285;-80
2021/12/09 08:13:15;;;;;;;11.65;5.30;;;;;;;;;;5096541;28;20267;-80
2021/12/09 08:15:48;;;;;;;16.60;6.25;;;;;;;;;;5078566;28;20650;-80
2021/12/09 08:18:27;;;;;;;12.13;5.93;;;;;;;;;;5096349;28;20185;-78
2021/12/09 08:20:54;;;;;;;16.15;6.22;;;;;;;;;;5096028;28;20183;-78
2021/12/09 08:23:20;;;;;;;14.57;6.13;;;;;;;;;;5096303;28;20616;-79
2021/12/09 08:25:48;;;;;;;13.00;7.18;;;;;;;;;;5096286;28;20202;-78
2021/12/09 08:28:14;;;;;;;16.55;8.00;;;;;;;;;;5096035;28;20171;-79
2021/12/09 08:30:41;;;;;;;15.38;7.45;;;;;;;;;;5095802;28;20192;-79
2021/12/09 08:33:08;;;;;;;16.85;6.97;;;;;;;;;;5095958;28;20237;-79
2021/12/09 08:35:35;;;;;;;6.70;4.53;;;;;;;;;;5096131;28;20211;-80
2021/12/09 08:38:01;;;;;;;14.07;5.10;;;;;;;;;;5077737;28;20651;-81
2021/12/09 08:40:27;;;;;;;16.67;5.60;;;;;;;;;;5095632;28;20197;-79
2021/12/09 08:42:54;;;;;;;9.18;5.45;;;;;;;;;;5096196;28;20562;-81
2021/12/09 08:45:21;;;;;;;10.43;5.85;;;;;;;;;;5096036;28;20169;-79
2021/12/09 08:47:47;;;;;;;16.08;6.70;;;;;;;;;;5095963;28;20174;-77
2021/12/09 08:50:15;;;;;;;8.68;6.32;;;;;;;;;;5095527;28;20271;-81
2021/12/09 08:52:41;;;;;;;10.13;6.25;;;;;;;;;;5095792;28;20172;-79
2021/12/09 08:55:08;;;;;;;12.77;6.95;;;;;;;;;;5084474;28;20188;-80
2021/12/09 08:57:36;;;;;;;15.38;7.53;;;;;;;;;;5074485;28;20193;-79
2021/12/09 09:00:04;;;;;;;14.68;8.98;;;;;;;;;;5086658;28;20180;-80
2021/12/09 09:02:30;;;;;;;8.70;7.00;;;;;;;;;;5095548;28;20172;-80
2021/12/09 09:04:57;;;;;;;8.80;6.53;;;;;;;;;;5077692;28;20172;-79
2021/12/09 09:07:23;;;;;;;13.68;5.72;;;;;;;;;;5077554;28;20185;-80
2021/12/09 09:09:49;;;;;;;13.32;5.88;;;;;;;;;;5095185;28;20638;-80
2021/12/09 09:12:16;;;;;;;12.82;6.03;;;;;;;;;;5095379;28;20204;-80
2021/12/09 09:14:42;;;;;;;8.68;6.00;;;;;;;;;;5095511;28;20168;-80
2021/12/09 09:17:09;;;;;;;10.13;5.43;;;;;;;;;;5095213;28;20200;-80
2021/12/09 09:19:35;;;;;;;9.55;6.28;;;;;;;;;;5094928;28;20443;-79
2021/12/09 09:22:01;;;;;;;10.70;5.05;;;;;;;;;;5095106;28;20690;-79
2021/12/09 09:24:27;;;;;;;8.82;5.28;;;;;;;;;;5076904;28;20183;-79
2021/12/09 09:26:53;;;;;;;11.85;5.47;;;;;;;;;;5075611;28;20174;-80
2021/12/09 09:29:20;;;;;;;11.02;5.20;;;;;;;;;;5077517;28;20187;-79
2021/12/09 09:31:46;;;;;;;7.88;5.10;;;;;;;;;;5074598;28;20290;-80
2021/12/09 09:34:12;;;;;;;9.85;5.65;;;;;;;;;;5074692;28;20178;-79
2021/12/09 09:36:43;;;;;;;10.70;5.95;;;;;;;;;;5074426;28;20199;-80
2021/12/09 09:39:20;;;;;;;6.47;5.43;;;;;;;;;;5074624;28;20174;-80
2021/12/09 09:41:54;;;;;;;11.68;5.45;;;;;;;;;;5074612;28;20726;-80
2021/12/09 09:44:23;;;;;;;13.70;5.68;;;;;;;;;;5074503;28;20220;-80
2021/12/09 09:46:52;;;;;;;13.27;6.80;;;;;;;;;;5076880;28;20199;-80
2021/12/09 09:49:18;;;;;;;8.20;4.97;;;;;;;;;;5079171;28;20193;-80
2021/12/09 09:51:44;;;;;;;13.52;5.60;;;;;;;;;;5094751;28;20282;-80
2021/12/09 09:54:10;;;;;;;18.50;6.20;;;;;;;;;;5094343;28;20218;-79
2021/12/09 09:56:41;;;;;;;18.33;7.43;;;;;;;;;;5091519;28;20468;-80
2021/12/09 09:59:09;;;;;;;8.35;5.78;;;;;;;;;;5091664;28;20177;-80
2021/12/09 10:01:35;;;;;;;9.05;5.18;;;;;;;;;;5073951;28;20244;-82
2021/12/09 10:04:13;;;;;;;10.23;4.55;;;;;;;;;;5074338;28;20180;-82
2021/12/09 10:06:40;;;;;;;10.77;4.30;;;;;;;;;;5074273;28;20164;-82
2021/12/09 10:09:07;;;;;;;7.78;4.43;;;;;;;;;;5073821;28;20177;-81
2021/12/09 10:11:33;;;;;;;8.30;3.95;;;;;;;;;;5056083;28;20612;-81
2021/12/09 10:14:10;;;;;;;5.28;4.13;;;;;;;;;;5073911;28;20199;-81
2021/12/09 10:16:38;;;;;;;9.68;3.55;;;;;;;;;;5073980;28;20283;-80
2021/12/09 10:19:12;;;;;;;5.55;3.35;;;;;;;;;;5055914;28;20763;-80
2021/12/09 10:21:38;;;;;;;6.78;3.17;;;;;;;;;;5073874;28;20193;-79
2021/12/09 10:24:06;;;;;;;9.38;3.90;;;;;;;;;;5056326;28;20653;-81
2021/12/09 10:26:37;;;;;;;4.50;3.13;;;;;;;;;;5073771;28;20216;-82
2021/12/09 10:29:26;;;;;;;9.25;2.88;;;;;;;;;;5073633;28;20606;-79
2021/12/09 10:31:58;;;;;;;8.20;2.90;;;;;;;;;;5072937;28;20212;-82
2021/12/09 10:34:41;;;;;;;6.57;2.80;;;;;;;;;;5073764;28;20172;-82
2021/12/09 10:37:22;;;;;;;10.27;3.22;;;;;;;;;;5073269;28;20599;-81
2021/12/09 10:40:08;;;;;;;5.05;3.10;;;;;;;;;;5055353;28;20626;-80
2021/12/09 10:42:34;;;;;;;6.63;3.15;;;;;;;;;;5073557;28;20623;-82
2021/12/09 10:45:35;;;;;;;5.47;3.63;;;;;;;;;;5073528;28;20168;-81
2021/12/09 10:48:25;;;;;;;6.38;3.45;;;;;;;;;;4992134;28;20793;-81
2021/12/09 10:56:01;;;;;;;8.60;2.83;;;;;;;;;;5073436;28;20185;-82
2021/12/09 10:58:29;;;;;;;10.27;3.00;;;;;;;;;;5073407;28;20169;-83
2021/12/09 11:00:57;;;;;;;7.25;3.03;;;;;;;;;;5072890;28;20195;-81
2021/12/09 11:03:27;;;;;;;7.97;3.08;;;;;;;;;;5073164;28;20165;-83
2021/12/09 11:05:56;;;;;;;7.80;2.47;;;;;;;;;;5073522;28;20202;-82
2021/12/09 11:08:24;;;;;;;5.10;3.72;;;;;;;;;;5073253;28;20181;-80
2021/12/09 11:10:57;;;;;;;10.68;4.30;;;;;;;;;;5072915;28;20190;-80
2021/12/09 11:13:23;;;;;;;4.47;2.90;;;;;;;;;;5073214;28;20173;-82
2021/12/09 11:15:54;;;;;;;7.80;3.13;;;;;;;;;;5073048;28;20169;-81
2021/12/09 11:18:36;;;;;;;8.13;2.97;;;;;;;;;;5073300;28;20590;-81
2021/12/09 11:21:08;;;;;;;4.80;2.75;;;;;;;;;;5071416;28;20193;-81
2021/12/09 11:23:37;;;;;;;6.80;3.42;;;;;;;;;;5073040;28;20200;-81
2021/12/09 11:26:18;;;;;;;11.73;3.45;;;;;;;;;;5073042;28;20193;-81
2021/12/09 11:28:55;;;;;;;8.73;3.30;;;;;;;;;;5073205;28;20233;-80
2021/12/09 11:31:27;;;;;;;5.18;3.33;;;;;;;;;;5072515;28;20266;-82
2021/12/09 11:34:08;;;;;;;7.20;3.28;;;;;;;;;;5073050;28;20176;-81
2021/12/09 11:36:40;;;;;;;7.15;3.03;;;;;;;;;;5072943;28;20563;-81
2021/12/09 11:39:21;;;;;;;7.75;3.15;;;;;;;;;;5072931;28;20175;-82
2021/12/09 11:41:48;;;;;;;5.07;3.38;;;;;;;;;;5072739;28;20243;-79
2021/12/09 11:44:14;;;;;;;7.43;2.85;;;;;;;;;;5076194;28;20174;-81
2021/12/09 11:46:41;;;;;;;7.03;2.95;;;;;;;;;;5076802;28;20543;-80
2021/12/09 11:49:08;;;;;;;8.75;3.50;;;;;;;;;;5076592;28;20182;-81
2021/12/09 11:51:34;;;;;;;7.25;3.15;;;;;;;;;;5076479;28;20193;-82
2021/12/09 11:54:01;;;;;;;8.20;3.85;;;;;;;;;;5076936;28;20178;-81
2021/12/09 11:59:22;;;;;;;9.30;3.22;;;;;;;;;;5077063;28;20185;-81
2021/12/09 12:11:04;;;;;;;10.90;3.00;;;;;;;;;;5074179;28;20196;-81
2021/12/09 12:13:33;;;;;;;7.43;2.75;;;;;;;;;;5076688;28;20184;-79
2021/12/09 12:16:20;;;;;;;7.38;2.65;;;;;;;;;;5074830;28;20265;-81
2021/12/09 12:19:31;;;;;;;4.40;2.40;;;;;;;;;;5076121;28;20169;-81
2021/12/09 12:22:19;;;;;;;3.20;2.15;;;;;;;;;;5073853;28;20204;-80
2021/12/09 12:27:13;;;;;;;4.50;2.17;;;;;;;;;;5076400;28;20184;-81
2021/12/09 12:35:10;;;;;;;3.80;2.28;;;;;;;;;;5076139;28;20204;-81
2021/12/09 12:38:01;;;;;;;4.80;2.55;;;;;;;;;;5075925;28;20546;-81
2021/12/09 12:40:41;;;;;;;7.68;2.00;;;;;;;;;;5075594;28;20191;-82
2021/12/09 12:43:14;;;;;;;3.83;2.03;;;;;;;;;;5074428;28;20231;-81
2021/12/09 12:48:51;;;;;;;3.25;2.00;;;;;;;;;;5075721;28;20599;-82
2021/12/09 12:54:24;;;;;;;3.38;1.88;;;;;;;;;;5075458;28;20169;-81
2021/12/09 12:56:55;;;;;;;3.47;2.20;;;;;;;;;;5074376;28;20571;-81
2021/12/09 12:59:28;;;;;;;6.50;1.80;;;;;;;;;;5073805;28;20272;-79
2021/12/09 13:02:03;;;;;;;3.83;1.85;;;;;;;;;;5075368;28;20188;-81
2021/12/09 13:07:20;;;;;;;2.35;2.15;;;;;;;;;;5075692;28;20181;-80
2021/12/09 13:09:59;;;;;;;3.08;2.00;;;;;;;;;;5075031;28;20168;-81
2021/12/09 13:12:41;;;;;;;3.60;2.63;;;;;;;;;;5075553;28;20176;-81
2021/12/09 13:15:08;;;;;;;7.18;2.60;;;;;;;;;;5075445;28;20174;-81
2021/12/09 13:17:46;;;;;;;5.75;2.50;;;;;;;;;;5075054;28;20219;-81
2021/12/09 13:20:33;;;;;;;5.85;2.58;;;;;;;;;;5074774;28;20220;-81
2021/12/09 13:23:28;;;;;;;2.90;2.50;;;;;;;;;;5075268;28;20654;-81
2021/12/09 13:26:18;;;;;;;2.83;2.22;;;;;;;;;;5075093;28;20165;-83
2021/12/09 13:29:13;;;;;;;5.75;2.45;;;;;;;;;;5075049;28;20175;-79
2021/12/09 13:31:51;;;;;;;4.03;2.08;;;;;;;;;;5074623;28;20199;-80
2021/12/09 13:34:28;;;;;;;4.25;2.20;;;;;;;;;;5073500;28;20172;-79
2021/12/09 13:37:29;;;;;;;3.45;1.67;;;;;;;;;;5074779;28;20206;-80
2021/12/09 13:48:15;;;;;;;2.08;1.75;;;;;;;;;;5075039;28;20658;-79
2021/12/09 13:50:52;;;;;;;1.65;1.50;;;;;;;;;;5074114;28;20192;-80
2021/12/09 13:56:08;;;;;;;2.53;2.03;;;;;;;;;;5073674;28;20579;-81
2021/12/09 13:58:34;;;;;;;1.50;1.40;;;;;;;;;;5074256;28;20634;-79
2021/12/09 14:01:00;;;;;;;2.30;1.83;;;;;;;;;;5073740;28;20285;-80
2021/12/09 14:03:27;;;;;;;3.80;2.25;;;;;;;;;;5073067;28;20176;-79
2021/12/09 14:05:57;;;;;;;2.65;1.70;;;;;;;;;;5072036;28;20179;-79
2021/12/09 14:08:35;;;;;;;2.55;2.13;;;;;;;;;;5074168;28;20172;-80
2021/12/09 14:11:05;;;;;;;2.22;1.92;;;;;;;;;;5073892;28;20239;-81
2021/12/09 14:13:34;;;;;;;1.65;1.45;;;;;;;;;;5072845;28;20178;-82
2021/12/09 14:16:07;;;;;;;2.10;1.60;;;;;;;;;;5074021;28;20243;-80
2021/12/09 14:18:58;;;;;;;1.90;1.48;;;;;;;;;;5074045;28;20653;-81
2021/12/09 14:21:24;;;;;;;3.58;2.20;;;;;;;;;;5073338;28;20585;-80
2021/12/09 14:24:02;;;;;;;2.53;1.80;;;;;;;;;;5073892;28;20679;-79
2021/12/09 14:26:28;;;;;;;2.88;1.90;;;;;;;;;;5072435;28;20173;-80
2021/12/09 14:28:57;;;;;;;4.50;1.60;;;;;;;;;;5073681;28;20178;-82
2021/12/09 14:31:23;;;;;;;3.85;2.08;;;;;;;;;;5073255;28;20507;-80
2021/12/09 14:33:49;;;;;;;2.45;1.70;;;;;;;;;;5073736;28;20257;-82
2021/12/09 14:36:17;;;;;;;2.75;1.40;;;;;;;;;;5072373;28;20280;-80
2021/12/09 14:38:44;;;;;;;1.83;1.30;;;;;;;;;;5073480;28;20172;-82
2021/12/09 14:41:28;;;;;;;2.90;1.60;;;;;;;;;;5073041;28;20215;-80
2021/12/09 14:43:54;;;;;;;2.35;1.80;;;;;;;;;;5073661;28;20671;-82
2021/12/09 14:46:27;;;;;;;2.40;2.10;;;;;;;;;;5073483;28;20178;-80
2021/12/09 14:48:53;;;;;;;2.17;1.77;;;;;;;;;;5073328;28;20171;-80
2021/12/09 14:51:27;;;;;;;2.10;1.90;;;;;;;;;;5073025;28;20193;-80
2021/12/09 14:54:02;;;;;;;4.35;1.98;;;;;;;;;;5073589;28;20223;-81
2021/12/09 14:56:30;;;;;;;2.15;1.83;;;;;;;;;;5071930;28;20726;-81
2021/12/09 14:59:15;;;;;;;1.92;1.60;;;;;;;;;;5073543;28;20514;-81
2021/12/09 15:01:41;;;;;;;1.92;1.83;;;;;;;;;;5072077;28;20247;-80
2021/12/09 15:04:15;;;;;;;4.32;3.47;;;;;;;;;;5073035;28;20176;-81
2021/12/09 15:06:44;;;;;;;2.20;1.75;;;;;;;;;;5073338;28;20183;-80
2021/12/09 15:09:15;;;;;;;6.50;5.03;;;;;;;;;;5072932;28;20250;-80
2021/12/09 15:11:42;;;;;;;2.05;1.90;;;;;;;;;;5073299;28;20196;-81
2021/12/09 15:14:16;;;;;;;2.90;2.20;;;;;;;;;;5071866;28;20266;-81
2021/12/09 15:16:41;;;;;;;3.45;1.90;;;;;;;;;;5072981;28;20532;-82
2021/12/09 15:19:18;;;;;;;2.80;1.60;;;;;;;;;;5073171;28;20179;-81
2021/12/09 15:21:44;;;;;;;1.88;1.60;;;;;;;;;;5072953;28;20427;-81
2021/12/09 15:24:11;;;;;;;2.25;1.70;;;;;;;;;;5073220;28;20170;-81
2021/12/09 15:26:39;;;;;;;3.08;1.70;;;;;;;;;;5073184;28;20183;-82
2021/12/09 15:29:07;;;;;;;6.05;2.10;;;;;;;;;;5072859;28;20202;-79
2021/12/09 15:31:35;;;;;;;3.03;2.10;;;;;;;;;;5071042;28;20246;-82
2021/12/09 15:34:08;;;;;;;2.63;1.67;;;;;;;;;;5072833;28;20652;-81
2021/12/09 15:36:35;;;;;;;2.50;2.25;;;;;;;;;;5072817;28;20201;-80
2021/12/09 15:39:15;;;;;;;2.55;2.00;;;;;;;;;;5072721;28;20165;-81